Ride Results

KER - Sheffield (14-03-2015)
Ride distance: 80.0 km

Outcomes - KER - Sheffield (14-03-2015)
Division No. of Entries Retired / DNE Completed Withdrawn Ineligible V/O Percentage Completed
HW 6 - 3 - - 3 50.00%
MW 18 - 16 - - 2 88.89%
LW 13 - 9 2 - 2 69.23%
JN 11 - 9 2 - - 81.82%
Totals 48 - 37 4 - 7 77.08%
Results - KER - Sheffield (14-03-2015)
No. Rider Horse Place Time Leg Speeds Total
Km/Hr
H/R bpm
Heavyweight
199 Dennis Foley Jnr Indy 1 (BC) 5:30:00 15.6, 13.5 14.55 33, 47, 57 (Avg:52)
166 Craig Wilson Stellar Express 2 6:01:00 15.6, 11.5 13.30 36, 54, 59 (Avg:56)
254 Deb Wyllie Castella Soldier Boy 3 7:37:00 11.0, 9.9 10.50 36, 42, 55 (Avg:48)
137 John Shoobridge Tex Lame L2 0:00:00 14.8, 14.6 - 38, 46, 56 (Avg:51)
274 Allan Wyllie Cruze KA Heart Rate L2 0:00:00 11.6, 9.9 - 49, 54, 64 (Avg:59)
22 Helen Astell Fenwick Ovation Lame L1 0:00:00 10.1 - 45, 43 (Avg:43)
Middleweight
92 Blaine Astell Shemali Silver Sherif 1 (BC) 5:26:00 14.2, 15.1 14.72 41, 44, 48 (Avg:46)
179 Debbie Grull Lauralyn Notorious 1 5:26:00 15.6, 13.8 14.72 43, 45, 44 (Avg:44)
57 Tania Jago Undurra Max 3 5:33:00 15.4, 13.4 14.41 56, 39, 53 (Avg:46)
143 Pauline Goodwin Marley Hosanna 4 6:01:00 15.6, 11.5 13.30 36, 42, 47 (Avg:44)
136 Kaye Mitchell Beer Street Dezhda 5 6:03:00 13.3, 13.1 13.22 32, 43, 44 (Avg:43)
101 Wendy Rand Diablo 5 6:03:00 13.3, 13.1 13.22 43, 45, 51 (Avg:48)
185 Mikaela Jago Undurra Geisha 7 6:07:00 15.4, 11.3 13.08 37, 45, 55 (Avg:50)
119 Max Lockhart Billy 8 6:27:00 12.6, 12.1 12.40 46, 50, 56 (Avg:53)
132 Carolyn Foley-Jones Vandieman Princess Ellie 9 6:36:00 9.1, 18.0 12.12 31, 40, 46 (Avg:43)
114 Tara Nicklason Wongawol Legend 10 6:41:01 12.4, 11.5 11.97 48, 49, 55 (Avg:52)
264 Ellie Maddick Awarran Park Alady Oracle 11 6:48:00 12.1, 11.3 11.76 48, 43, 58 (Avg:50)
276 Naomi Maxwell Melody 12 7:33:00 10.8, 10.3 10.60 36, 45, 49 (Avg:47)
300 Raelene Smith Ben 13 7:34:00 11.4, 9.8 10.57 39, 41, 50 (Avg:45)
69 Tracey Wyllie Elphyn Ripple 14 7:37:00 11.0, 9.9 10.50 38, 42, 47 (Avg:44)
192 Danielle Taylor Hopetoun Surprisedom 15 7:56:00 10.1, 10.0 10.08 38, 44, 52 (Avg:48)
68 Janine Parr Janarr Shimmering Surprise 16 8:00:00 10.5, 9.4 10.00 40, 45, 54 (Avg:49)
171 Craig Wall Undurra Shahkhan Lame L2 0:00:00 17.9, 15.8 - 34, 50, 54 (Avg:52)
180 Nicole Ford Highland View Piper Lame L1 0:00:00 15.6 - 38, 45 (Avg:45)
Lightweight
83 Angie Clark Castlebar Galahad 1 (BC) 5:26:00 14.2, 15.1 14.72 38, 46, 50 (Avg:48)
135 Breaana Smith Sir Angus of Seven Oaks 2 5:58:00 14.4, 12.4 13.41 40, 49, 49 (Avg:49)
12 Anita Hutchins Temar Mahavee 3 6:33:00 12.3, 12.1 12.21 40, 46, 50 (Avg:48)
191 Conny Elton Ghandi 4 6:41:00 12.4, 11.5 11.97 40, 42, 56 (Avg:49)
125 Brooke Brown-Cordell Ausden Reflection 5 6:45:01 12.1, 11.5 11.85 38, 45, 48 (Avg:46)
271 Jessie Herman DVS Olympia 5 6:45:01 13.1, 10.8 11.85 42, 45, 51 (Avg:48)
228 Melissa Kelly Harmony 7 7:33:00 10.8, 10.3 10.60 37, 46, 44 (Avg:45)
54 Brooke McKenna Miss Mika 8 7:34:00 11.4, 9.8 10.57 38, 44, 50 (Avg:47)
252 Christal Rizk Karshna Ebony 9 7:56:00 10.1, 9.9 10.08 41, 47, 55 (Avg:51)
74 Felicity Perry Awarran Park Star Shadow Gall or injury L2 0:00:00 11.8, 74.9 - 33, 42, 46 (Avg:44)
150 Emily Shadbolt Awarran Park Silver Raven Lame L2 0:00:00 12.1, 11.3 - 48, 44, 57 (Avg:50)
100 Trish Smith Anglesea Piccolo Withdrawn L1 0:00:00 - - 48, 44 (Avg:44)
90 Angela Hawks Colorado Withdrawn P/R 0:00:00 - - 34
Junior
127 Jaz Hutchins Highland View Moonshine 1 5:50:00 14.3, 13.1 13.71 35, 47, 52 (Avg:49)
226 Hayley Marshall Rowallan Aspin 1 (BC) 5:50:00 14.3, 13.1 13.71 39, 49, 54 (Avg:51)
277 Heather Colbeck Awarran Park Silver Starlite 3 6:33:00 12.3, 12.1 12.21 46, 47, 54 (Avg:50)
66 David Anderson Jnr El Desanteh 4 6:45:00 12.1, 11.5 11.85 46, 47, 57 (Avg:52)
168 Emily Gerke Armidale Flash Jack 5 7:14:00 10.8, 11.3 11.06 30, 41, 51 (Avg:46)
70 Charlotte Wyllie Ace of Moravian 6 7:28:01 11.6, 9.9 10.71 42, 47, 50 (Avg:48)
237 Khalan Ford Black Heart Man Power 7 7:28:02 11.6, 9.9 10.71 37, 49, 47 (Avg:48)
8 Holli Anthony OToole Jaggah Ka 8 7:28:03 11.6, 9.9 10.71 38, 39, 49 (Avg:44)
186 Amelia Napier Jayhal Kadir 9 7:56:00 10.1, 10.0 10.08 48, 45, 60 (Avg:52)
209 Grace Huxtable Bacardi Withdrawn L2 0:00:00 - - 47, 53, 54 (Avg:53)
290 Jessica Williams Jaimon-Sharhi Baqi Withdrawn L1 0:00:00 - - 35, 50 (Avg:50)